sensor_id;sensor_type;location;lat;lon;timestamp;pressure;altitude;pressure_sealevel;temperature;humidity
51293;BME280;37377;45.186;9.778;2023-11-21T00:01:28;100632.34;;;10.74;71.62
51293;BME280;37377;45.186;9.778;2023-11-21T00:04:11;100640.22;;;10.74;71.38
51293;BME280;37377;45.186;9.778;2023-11-21T00:06:38;100645.31;;;10.87;70.78
51293;BME280;37377;45.186;9.778;2023-11-21T00:09:05;100642.03;;;10.95;70.87
51293;BME280;37377;45.186;9.778;2023-11-21T00:11:34;100648.28;;;10.83;71.27
51293;BME280;37377;45.186;9.778;2023-11-21T00:14:01;100637.34;;;10.77;71.17
51293;BME280;37377;45.186;9.778;2023-11-21T00:16:40;100633.78;;;10.78;71.31
51293;BME280;37377;45.186;9.778;2023-11-21T00:19:13;100626.34;;;10.84;71.44
51293;BME280;37377;45.186;9.778;2023-11-21T00:21:40;100630.59;;;10.96;70.45
51293;BME280;37377;45.186;9.778;2023-11-21T00:24:36;100632.44;;;10.84;70.72
51293;BME280;37377;45.186;9.778;2023-11-21T00:27:07;100633.31;;;10.73;70.92
51293;BME280;37377;45.186;9.778;2023-11-21T00:29:48;100639.94;;;10.89;70.65
51293;BME280;37377;45.186;9.778;2023-11-21T00:32:17;100632.56;;;10.83;70.54
51293;BME280;37377;45.186;9.778;2023-11-21T00:34:46;100625.38;;;10.96;71.38
51293;BME280;37377;45.186;9.778;2023-11-21T00:37:14;100633.03;;;11.09;70.14
51293;BME280;37377;45.186;9.778;2023-11-21T00:39:56;100621.03;;;11.06;69.78
51293;BME280;37377;45.186;9.778;2023-11-21T00:42:26;100626.44;;;10.93;69.96
51293;BME280;37377;45.186;9.778;2023-11-21T00:44:54;100618.75;;;11.01;70.30
51293;BME280;37377;45.186;9.778;2023-11-21T00:47:21;100624.06;;;10.90;70.12
51293;BME280;37377;45.186;9.778;2023-11-21T00:49:51;100631.53;;;10.95;69.80
51293;BME280;37377;45.186;9.778;2023-11-21T00:52:22;100625.31;;;11.07;69.73
51293;BME280;37377;45.186;9.778;2023-11-21T00:54:50;100619.47;;;11.03;70.30
51293;BME280;37377;45.186;9.778;2023-11-21T00:57:35;100618.34;;;10.96;70.08
51293;BME280;37377;45.186;9.778;2023-11-21T01:00:05;100615.38;;;10.90;70.57
51293;BME280;37377;45.186;9.778;2023-11-21T01:03:11;100620.88;;;10.87;70.49
51293;BME280;37377;45.186;9.778;2023-11-21T01:05:48;100621.25;;;10.82;70.62
51293;BME280;37377;45.186;9.778;2023-11-21T01:08:31;100620.63;;;10.90;70.93
51293;BME280;37377;45.186;9.778;2023-11-21T01:10:59;100617.31;;;10.88;70.88
51293;BME280;37377;45.186;9.778;2023-11-21T01:13:33;100626.69;;;10.90;70.74
51293;BME280;37377;45.186;9.778;2023-11-21T01:16:00;100633.03;;;10.88;71.73
51293;BME280;37377;45.186;9.778;2023-11-21T01:18:33;100632.75;;;10.91;71.80
51293;BME280;37377;45.186;9.778;2023-11-21T01:21:03;100635.66;;;10.88;72.46
51293;BME280;37377;45.186;9.778;2023-11-21T01:23:52;100622.91;;;11.04;71.68
51293;BME280;37377;45.186;9.778;2023-11-21T01:26:34;100617.44;;;11.07;71.91
51293;BME280;37377;45.186;9.778;2023-11-21T01:29:11;100614.28;;;10.92;72.37
51293;BME280;37377;45.186;9.778;2023-11-21T01:31:41;100614.19;;;11.15;72.26
51293;BME280;37377;45.186;9.778;2023-11-21T01:34:31;100605.72;;;11.11;72.45
51293;BME280;37377;45.186;9.778;2023-11-21T01:37:02;100611.88;;;11.00;72.58
51293;BME280;37377;45.186;9.778;2023-11-21T01:39:53;100607.31;;;10.82;73.49
51293;BME280;37377;45.186;9.778;2023-11-21T01:42:32;100615.81;;;10.95;73.54
51293;BME280;37377;45.186;9.778;2023-11-21T01:45:05;100613.16;;;11.06;73.43
51293;BME280;37377;45.186;9.778;2023-11-21T01:47:38;100604.75;;;11.12;72.78
51293;BME280;37377;45.186;9.778;2023-11-21T01:50:16;100608.34;;;11.11;73.11
51293;BME280;37377;45.186;9.778;2023-11-21T01:52:48;100615.00;;;11.15;72.62
51293;BME280;37377;45.186;9.778;2023-11-21T01:55:17;100611.41;;;11.16;72.92
51293;BME280;37377;45.186;9.778;2023-11-21T01:57:55;100610.91;;;11.22;72.90
51293;BME280;37377;45.186;9.778;2023-11-21T02:00:23;100603.97;;;11.21;72.50
51293;BME280;37377;45.186;9.778;2023-11-21T02:02:51;100593.78;;;10.97;73.46
51293;BME280;37377;45.186;9.778;2023-11-21T02:05:24;100586.94;;;11.06;72.89
51293;BME280;37377;45.186;9.778;2023-11-21T02:07:51;100585.72;;;10.89;74.01
51293;BME280;37377;45.186;9.778;2023-11-21T02:10:20;100592.56;;;11.01;73.38
51293;BME280;37377;45.186;9.778;2023-11-21T02:12:58;100585.66;;;11.00;73.67
51293;BME280;37377;45.186;9.778;2023-11-21T02:15:30;100576.97;;;11.00;73.83
51293;BME280;37377;45.186;9.778;2023-11-21T02:18:04;100574.41;;;11.10;73.58
51293;BME280;37377;45.186;9.778;2023-11-21T02:21:04;100576.88;;;11.11;73.69
51293;BME280;37377;45.186;9.778;2023-11-21T02:24:02;100574.59;;;11.18;73.68
51293;BME280;37377;45.186;9.778;2023-11-21T02:26:29;100569.91;;;11.21;73.54
51293;BME280;37377;45.186;9.778;2023-11-21T02:28:56;100568.19;;;11.11;74.21
51293;BME280;37377;45.186;9.778;2023-11-21T02:31:32;100565.88;;;11.17;74.11
51293;BME280;37377;45.186;9.778;2023-11-21T02:34:47;100564.78;;;11.20;74.18
51293;BME280;37377;45.186;9.778;2023-11-21T02:37:14;100566.44;;;11.21;73.93
51293;BME280;37377;45.186;9.778;2023-11-21T02:39:42;100557.91;;;11.19;74.08
51293;BME280;37377;45.186;9.778;2023-11-21T02:42:09;100554.16;;;11.21;74.13
51293;BME280;37377;45.186;9.778;2023-11-21T02:45:54;100555.72;;;11.24;74.29
51293;BME280;37377;45.186;9.778;2023-11-21T02:48:21;100558.53;;;11.32;73.78
51293;BME280;37377;45.186;9.778;2023-11-21T02:50:51;100561.25;;;11.30;74.10
51293;BME280;37377;45.186;9.778;2023-11-21T02:53:20;100557.91;;;11.19;74.52
51293;BME280;37377;45.186;9.778;2023-11-21T02:55:47;100554.31;;;11.20;74.65
51293;BME280;37377;45.186;9.778;2023-11-21T02:59:10;100556.63;;;11.13;74.79
51293;BME280;37377;45.186;9.778;2023-11-21T03:01:37;100550.16;;;11.17;74.59
51293;BME280;37377;45.186;9.778;2023-11-21T03:04:04;100552.56;;;11.30;73.97
51293;BME280;37377;45.186;9.778;2023-11-21T03:06:32;100549.09;;;11.29;74.21
51293;BME280;37377;45.186;9.778;2023-11-21T03:09:00;100542.19;;;11.28;74.93
51293;BME280;37377;45.186;9.778;2023-11-21T03:11:27;100544.13;;;11.26;74.61
51293;BME280;37377;45.186;9.778;2023-11-21T03:13:54;100545.09;;;11.25;74.34
51293;BME280;37377;45.186;9.778;2023-11-21T03:16:21;100535.34;;;11.37;74.06
51293;BME280;37377;45.186;9.778;2023-11-21T03:18:48;100547.75;;;11.35;74.22
51293;BME280;37377;45.186;9.778;2023-11-21T03:21:15;100542.50;;;11.35;74.29
51293;BME280;37377;45.186;9.778;2023-11-21T03:23:41;100532.16;;;11.33;74.25
51293;BME280;37377;45.186;9.778;2023-11-21T03:26:12;100527.88;;;11.32;73.69
51293;BME280;37377;45.186;9.778;2023-11-21T03:28:40;100523.84;;;11.28;73.84
51293;BME280;37377;45.186;9.778;2023-11-21T03:31:07;100524.53;;;11.30;74.08
51293;BME280;37377;45.186;9.778;2023-11-21T03:33:35;100534.69;;;11.14;74.88
51293;BME280;37377;45.186;9.778;2023-11-21T03:36:02;100537.50;;;11.22;74.26
51293;BME280;37377;45.186;9.778;2023-11-21T03:38:30;100533.91;;;11.23;74.28
51293;BME280;37377;45.186;9.778;2023-11-21T03:40:57;100525.66;;;11.28;73.67
51293;BME280;37377;45.186;9.778;2023-11-21T03:43:24;100525.94;;;11.34;73.52
51293;BME280;37377;45.186;9.778;2023-11-21T03:45:51;100536.41;;;11.25;73.80
51293;BME280;37377;45.186;9.778;2023-11-21T03:48:18;100531.41;;;11.22;73.81
51293;BME280;37377;45.186;9.778;2023-11-21T03:50:45;100530.84;;;11.18;73.70
51293;BME280;37377;45.186;9.778;2023-11-21T03:53:14;100536.66;;;11.22;73.46
51293;BME280;37377;45.186;9.778;2023-11-21T03:55:40;100537.75;;;11.19;73.49
51293;BME280;37377;45.186;9.778;2023-11-21T03:58:07;100541.84;;;11.12;73.55
51293;BME280;37377;45.186;9.778;2023-11-21T04:00:34;100543.97;;;11.18;73.40
51293;BME280;37377;45.186;9.778;2023-11-21T04:03:01;100541.59;;;11.15;73.70
51293;BME280;37377;45.186;9.778;2023-11-21T04:05:29;100542.44;;;11.16;73.35
51293;BME280;37377;45.186;9.778;2023-11-21T04:07:55;100540.63;;;11.16;73.32
51293;BME280;37377;45.186;9.778;2023-11-21T04:10:22;100540.13;;;11.22;73.35
51293;BME280;37377;45.186;9.778;2023-11-21T04:12:49;100542.63;;;11.24;73.88
51293;BME280;37377;45.186;9.778;2023-11-21T04:15:16;100539.41;;;11.20;73.67
51293;BME280;37377;45.186;9.778;2023-11-21T04:17:44;100549.34;;;11.17;72.92
51293;BME280;37377;45.186;9.778;2023-11-21T04:20:19;100543.00;;;11.19;72.17
51293;BME280;37377;45.186;9.778;2023-11-21T04:22:48;100542.28;;;11.17;72.06
51293;BME280;37377;45.186;9.778;2023-11-21T04:25:15;100545.88;;;11.16;72.33
51293;BME280;37377;45.186;9.778;2023-11-21T04:27:44;100549.84;;;11.11;72.83
51293;BME280;37377;45.186;9.778;2023-11-21T04:30:12;100548.50;;;11.16;73.18
51293;BME280;37377;45.186;9.778;2023-11-21T04:32:42;100538.66;;;11.09;72.16
51293;BME280;37377;45.186;9.778;2023-11-21T04:35:09;100537.56;;;11.11;71.59
51293;BME280;37377;45.186;9.778;2023-11-21T04:37:54;100540.19;;;11.11;70.42
51293;BME280;37377;45.186;9.778;2023-11-21T04:40:52;100531.94;;;11.16;70.36
51293;BME280;37377;45.186;9.778;2023-11-21T04:43:21;100539.69;;;11.17;70.58
51293;BME280;37377;45.186;9.778;2023-11-21T04:46:56;100538.44;;;11.21;70.89
51293;BME280;37377;45.186;9.778;2023-11-21T04:49:51;100542.19;;;11.28;71.04
51293;BME280;37377;45.186;9.778;2023-11-21T04:52:18;100542.44;;;11.16;72.62
51293;BME280;37377;45.186;9.778;2023-11-21T04:54:47;100536.72;;;11.31;72.33
51293;BME280;37377;45.186;9.778;2023-11-21T04:57:14;100533.53;;;11.38;72.75
51293;BME280;37377;45.186;9.778;2023-11-21T04:59:44;100534.38;;;11.38;72.59
51293;BME280;37377;45.186;9.778;2023-11-21T05:02:11;100529.78;;;11.30;72.89
51293;BME280;37377;45.186;9.778;2023-11-21T05:04:58;100534.28;;;11.40;72.95
51293;BME280;37377;45.186;9.778;2023-11-21T05:07:25;100529.53;;;11.33;73.16
51293;BME280;37377;45.186;9.778;2023-11-21T05:09:58;100532.59;;;11.39;72.92
51293;BME280;37377;45.186;9.778;2023-11-21T05:12:25;100535.53;;;11.15;73.93
51293;BME280;37377;45.186;9.778;2023-11-21T05:14:53;100530.06;;;11.27;73.50
51293;BME280;37377;45.186;9.778;2023-11-21T05:17:21;100527.72;;;11.24;73.89
51293;BME280;37377;45.186;9.778;2023-11-21T05:19:47;100530.06;;;11.27;73.28
51293;BME280;37377;45.186;9.778;2023-11-21T05:22:16;100524.81;;;11.27;73.01
51293;BME280;37377;45.186;9.778;2023-11-21T05:24:43;100522.88;;;11.29;73.11
51293;BME280;37377;45.186;9.778;2023-11-21T05:27:09;100515.00;;;11.29;73.37
51293;BME280;37377;45.186;9.778;2023-11-21T05:29:36;100519.00;;;11.24;73.71
51293;BME280;37377;45.186;9.778;2023-11-21T05:32:04;100513.34;;;11.28;73.59
51293;BME280;37377;45.186;9.778;2023-11-21T05:34:31;100516.25;;;11.25;73.92
51293;BME280;37377;45.186;9.778;2023-11-21T05:36:58;100508.78;;;11.21;74.42
51293;BME280;37377;45.186;9.778;2023-11-21T05:39:25;100524.91;;;11.16;74.50
51293;BME280;37377;45.186;9.778;2023-11-21T05:41:52;100535.06;;;11.10;74.98
51293;BME280;37377;45.186;9.778;2023-11-21T05:44:19;100525.56;;;11.09;74.85
51293;BME280;37377;45.186;9.778;2023-11-21T05:46:46;100525.88;;;11.15;74.43
51293;BME280;37377;45.186;9.778;2023-11-21T05:49:13;100528.38;;;11.17;74.31
51293;BME280;37377;45.186;9.778;2023-11-21T05:51:39;100534.13;;;11.11;74.68
51293;BME280;37377;45.186;9.778;2023-11-21T05:54:06;100525.88;;;11.15;74.82
51293;BME280;37377;45.186;9.778;2023-11-21T05:56:34;100534.44;;;11.17;74.55
51293;BME280;37377;45.186;9.778;2023-11-21T05:59:01;100525.28;;;11.12;74.51
51293;BME280;37377;45.186;9.778;2023-11-21T06:01:30;100527.53;;;11.16;74.60
51293;BME280;37377;45.186;9.778;2023-11-21T06:03:56;100533.75;;;11.15;74.42
51293;BME280;37377;45.186;9.778;2023-11-21T06:06:24;100536.78;;;11.20;74.27
51293;BME280;37377;45.186;9.778;2023-11-21T06:08:51;100536.78;;;11.20;73.94
51293;BME280;37377;45.186;9.778;2023-11-21T06:11:18;100538.00;;;11.16;74.28
51293;BME280;37377;45.186;9.778;2023-11-21T06:13:45;100544.41;;;11.23;74.20
51293;BME280;37377;45.186;9.778;2023-11-21T06:16:12;100543.69;;;11.21;74.14
51293;BME280;37377;45.186;9.778;2023-11-21T06:18:43;100540.69;;;11.26;73.78
51293;BME280;37377;45.186;9.778;2023-11-21T06:21:10;100537.50;;;11.22;73.93
51293;BME280;37377;45.186;9.778;2023-11-21T06:23:37;100544.28;;;11.25;74.22
51293;BME280;37377;45.186;9.778;2023-11-21T06:26:05;100544.41;;;11.23;74.24
51293;BME280;37377;45.186;9.778;2023-11-21T06:28:32;100538.88;;;11.26;73.83
51293;BME280;37377;45.186;9.778;2023-11-21T06:30:59;100537.94;;;11.27;74.05
51293;BME280;37377;45.186;9.778;2023-11-21T06:33:32;100536.44;;;11.34;73.77
51293;BME280;37377;45.186;9.778;2023-11-21T06:35:58;100534.16;;;11.20;74.39
51293;BME280;37377;45.186;9.778;2023-11-21T06:38:26;100539.69;;;11.17;74.08
51293;BME280;37377;45.186;9.778;2023-11-21T06:40:57;100531.81;;;11.17;74.25
51293;BME280;37377;45.186;9.778;2023-11-21T06:43:25;100526.59;;;11.27;73.97
51293;BME280;37377;45.186;9.778;2023-11-21T06:45:53;100525.91;;;11.25;73.94
51293;BME280;37377;45.186;9.778;2023-11-21T06:48:21;100529.47;;;11.14;74.17
51293;BME280;37377;45.186;9.778;2023-11-21T06:50:47;100535.56;;;11.24;74.02
51293;BME280;37377;45.186;9.778;2023-11-21T06:53:14;100532.00;;;11.25;73.78
51293;BME280;37377;45.186;9.778;2023-11-21T06:55:41;100533.13;;;11.32;73.66
51293;BME280;37377;45.186;9.778;2023-11-21T06:58:08;100530.22;;;11.35;73.65
51293;BME280;37377;45.186;9.778;2023-11-21T07:00:35;100537.59;;;11.42;73.20
51293;BME280;37377;45.186;9.778;2023-11-21T07:03:02;100534.88;;;11.22;73.63
51293;BME280;37377;45.186;9.778;2023-11-21T07:05:29;100530.66;;;11.31;73.55
51293;BME280;37377;45.186;9.778;2023-11-21T07:07:56;100520.97;;;11.31;73.05
51293;BME280;37377;45.186;9.778;2023-11-21T07:10:23;100516.69;;;11.30;73.46
51293;BME280;37377;45.186;9.778;2023-11-21T07:12:49;100516.78;;;11.19;73.53
51293;BME280;37377;45.186;9.778;2023-11-21T07:15:17;100514.50;;;11.35;72.97
51293;BME280;37377;45.186;9.778;2023-11-21T07:17:46;100517.97;;;11.46;72.62
51293;BME280;37377;45.186;9.778;2023-11-21T07:20:15;100519.84;;;11.64;72.04
51293;BME280;37377;45.186;9.778;2023-11-21T07:22:44;100521.38;;;11.67;71.94
51293;BME280;37377;45.186;9.778;2023-11-21T07:25:11;100523.44;;;11.73;71.38
51293;BME280;37377;45.186;9.778;2023-11-21T07:27:38;100515.72;;;11.72;71.80
51293;BME280;37377;45.186;9.778;2023-11-21T07:30:05;100519.34;;;11.80;71.56
51293;BME280;37377;45.186;9.778;2023-11-21T07:32:34;100532.97;;;11.74;71.73
51293;BME280;37377;45.186;9.778;2023-11-21T07:35:01;100543.06;;;11.69;71.94
51293;BME280;37377;45.186;9.778;2023-11-21T07:37:28;100556.19;;;11.79;71.71
51293;BME280;37377;45.186;9.778;2023-11-21T07:39:55;100555.94;;;11.82;71.43
51293;BME280;37377;45.186;9.778;2023-11-21T07:42:23;100549.53;;;11.65;72.28
51293;BME280;37377;45.186;9.778;2023-11-21T07:44:51;100547.06;;;11.73;72.28
51293;BME280;37377;45.186;9.778;2023-11-21T07:47:18;100544.84;;;11.69;72.02
51293;BME280;37377;45.186;9.778;2023-11-21T07:49:45;100537.00;;;11.78;71.49
51293;BME280;37377;45.186;9.778;2023-11-21T07:52:13;100536.00;;;11.70;71.73
51293;BME280;37377;45.186;9.778;2023-11-21T07:54:42;100528.06;;;11.90;70.80
51293;BME280;37377;45.186;9.778;2023-11-21T07:57:09;100537.59;;;11.91;70.63
51293;BME280;37377;45.186;9.778;2023-11-21T07:59:40;100538.72;;;11.99;70.26
51293;BME280;37377;45.186;9.778;2023-11-21T08:02:08;100548.41;;;12.08;70.10
51293;BME280;37377;45.186;9.778;2023-11-21T08:04:34;100549.66;;;12.04;70.33
51293;BME280;37377;45.186;9.778;2023-11-21T08:07:02;100549.75;;;11.93;70.76
51293;BME280;37377;45.186;9.778;2023-11-21T08:09:31;100552.97;;;12.06;70.23
51293;BME280;37377;45.186;9.778;2023-11-21T08:11:57;100549.38;;;12.07;70.28
51293;BME280;37377;45.186;9.778;2023-11-21T08:14:24;100543.16;;;12.17;69.57
51293;BME280;37377;45.186;9.778;2023-11-21T08:16:52;100554.94;;;12.23;69.20
51293;BME280;37377;45.186;9.778;2023-11-21T08:19:19;100545.78;;;12.17;69.59
51293;BME280;37377;45.186;9.778;2023-11-21T08:21:45;100537.22;;;12.15;69.36
51293;BME280;37377;45.186;9.778;2023-11-21T08:24:12;100530.19;;;12.35;68.74
51293;BME280;37377;45.186;9.778;2023-11-21T08:26:39;100532.13;;;12.33;68.04
51293;BME280;37377;45.186;9.778;2023-11-21T08:29:06;100528.13;;;12.48;67.26
51293;BME280;37377;45.186;9.778;2023-11-21T08:31:33;100516.78;;;12.58;67.00
51293;BME280;37377;45.186;9.778;2023-11-21T08:34:01;100518.97;;;12.62;66.95
51293;BME280;37377;45.186;9.778;2023-11-21T08:36:29;100518.94;;;12.91;65.92
51293;BME280;37377;45.186;9.778;2023-11-21T08:38:58;100526.38;;;12.96;65.71
51293;BME280;37377;45.186;9.778;2023-11-21T08:41:24;100529.22;;;12.65;66.94
51293;BME280;37377;45.186;9.778;2023-11-21T08:43:51;100527.78;;;12.90;66.58
51293;BME280;37377;45.186;9.778;2023-11-21T08:46:19;100526.06;;;13.09;65.60
51293;BME280;37377;45.186;9.778;2023-11-21T08:48:46;100528.94;;;13.25;64.94
51293;BME280;37377;45.186;9.778;2023-11-21T08:51:13;100519.34;;;13.33;64.89
51293;BME280;37377;45.186;9.778;2023-11-21T08:53:43;100513.63;;;13.48;64.21
51293;BME280;37377;45.186;9.778;2023-11-21T08:56:13;100511.22;;;13.54;63.18
51293;BME280;37377;45.186;9.778;2023-11-21T08:58:43;100501.78;;;13.62;63.61
51293;BME280;37377;45.186;9.778;2023-11-21T09:01:10;100499.06;;;13.53;63.38
51293;BME280;37377;45.186;9.778;2023-11-21T09:03:39;100500.06;;;13.70;63.37
51293;BME280;37377;45.186;9.778;2023-11-21T09:06:07;100500.91;;;13.71;63.01
51293;BME280;37377;45.186;9.778;2023-11-21T09:08:36;100498.44;;;13.87;62.25
51293;BME280;37377;45.186;9.778;2023-11-21T09:11:04;100492.78;;;13.82;62.05
51293;BME280;37377;45.186;9.778;2023-11-21T09:13:32;100483.16;;;14.08;60.77
51293;BME280;37377;45.186;9.778;2023-11-21T09:15:59;100482.94;;;14.02;60.76
51293;BME280;37377;45.186;9.778;2023-11-21T09:18:25;100480.28;;;14.20;60.53
51293;BME280;37377;45.186;9.778;2023-11-21T09:20:52;100481.41;;;14.35;60.73
51293;BME280;37377;45.186;9.778;2023-11-21T09:23:19;100476.59;;;14.48;60.02
51293;BME280;37377;45.186;9.778;2023-11-21T09:25:47;100471.69;;;14.35;59.92
51293;BME280;37377;45.186;9.778;2023-11-21T09:28:16;100482.31;;;14.61;59.12
51293;BME280;37377;45.186;9.778;2023-11-21T09:30:44;100484.22;;;14.77;59.23
51293;BME280;37377;45.186;9.778;2023-11-21T09:33:10;100487.31;;;14.72;59.18
51293;BME280;37377;45.186;9.778;2023-11-21T09:35:38;100485.56;;;14.81;58.31
51293;BME280;37377;45.186;9.778;2023-11-21T09:38:05;100481.78;;;14.84;58.60
51293;BME280;37377;45.186;9.778;2023-11-21T09:40:38;100483.63;;;14.91;58.23
51293;BME280;37377;45.186;9.778;2023-11-21T09:43:08;100475.69;;;15.17;57.59
51293;BME280;37377;45.186;9.778;2023-11-21T09:45:47;100490.66;;;15.09;57.38
51293;BME280;37377;45.186;9.778;2023-11-21T09:48:17;100490.09;;;15.23;56.75
51293;BME280;37377;45.186;9.778;2023-11-21T09:50:46;100488.66;;;15.02;57.32
51293;BME280;37377;45.186;9.778;2023-11-21T09:53:20;100471.72;;;14.79;58.38
51293;BME280;37377;45.186;9.778;2023-11-21T09:55:54;100478.97;;;14.77;58.56
51293;BME280;37377;45.186;9.778;2023-11-21T09:58:21;100477.28;;;15.02;58.37
51293;BME280;37377;45.186;9.778;2023-11-21T10:00:53;100476.84;;;15.15;57.90
51293;BME280;37377;45.186;9.778;2023-11-21T10:03:22;100475.41;;;15.20;57.77
51293;BME280;37377;45.186;9.778;2023-11-21T10:05:50;100471.78;;;15.21;58.12
51293;BME280;37377;45.186;9.778;2023-11-21T10:08:19;100462.78;;;15.06;58.18
51293;BME280;37377;45.186;9.778;2023-11-21T10:10:49;100456.09;;;14.86;59.03
51293;BME280;37377;45.186;9.778;2023-11-21T10:13:18;100445.63;;;14.68;59.92
51293;BME280;37377;45.186;9.778;2023-11-21T10:15:50;100451.81;;;14.85;59.75
51293;BME280;37377;45.186;9.778;2023-11-21T10:18:18;100450.19;;;14.92;59.74
51293;BME280;37377;45.186;9.778;2023-11-21T10:20:46;100444.91;;;14.92;59.70
51293;BME280;37377;45.186;9.778;2023-11-21T10:23:22;100447.78;;;14.72;60.00
51293;BME280;37377;45.186;9.778;2023-11-21T10:25:53;100438.84;;;14.99;59.34
51293;BME280;37377;45.186;9.778;2023-11-21T10:28:24;100443.06;;;14.84;59.44
51293;BME280;37377;45.186;9.778;2023-11-21T10:30:51;100436.69;;;15.29;58.77
51293;BME280;37377;45.186;9.778;2023-11-21T10:33:27;100437.09;;;15.16;58.72
51293;BME280;37377;45.186;9.778;2023-11-21T10:35:55;100429.63;;;15.38;58.75
51293;BME280;37377;45.186;9.778;2023-11-21T10:38:22;100427.97;;;15.53;57.29
51293;BME280;37377;45.186;9.778;2023-11-21T10:40:51;100432.50;;;15.69;56.86
51293;BME280;37377;45.186;9.778;2023-11-21T10:43:19;100432.69;;;15.75;57.62
51293;BME280;37377;45.186;9.778;2023-11-21T10:45:46;100427.97;;;15.53;57.89
51293;BME280;37377;45.186;9.778;2023-11-21T10:48:14;100439.53;;;15.52;57.40
51293;BME280;37377;45.186;9.778;2023-11-21T10:50:46;100438.38;;;15.54;57.77
51293;BME280;37377;45.186;9.778;2023-11-21T10:53:13;100433.03;;;15.89;56.15
51293;BME280;37377;45.186;9.778;2023-11-21T10:55:41;100430.69;;;15.69;56.82
51293;BME280;37377;45.186;9.778;2023-11-21T10:58:10;100433.69;;;15.74;56.91
51293;BME280;37377;45.186;9.778;2023-11-21T11:00:40;100426.22;;;15.62;56.41
51293;BME280;37377;45.186;9.778;2023-11-21T11:03:07;100420.13;;;15.61;56.59
51293;BME280;37377;45.186;9.778;2023-11-21T11:05:43;100423.13;;;15.82;56.48
51293;BME280;37377;45.186;9.778;2023-11-21T11:08:21;100414.63;;;15.54;56.81
51293;BME280;37377;45.186;9.778;2023-11-21T11:10:54;100421.06;;;15.52;57.54
51293;BME280;37377;45.186;9.778;2023-11-21T11:13:21;100423.03;;;15.50;57.58
51293;BME280;37377;45.186;9.778;2023-11-21T11:15:48;100413.78;;;15.46;57.11
51293;BME280;37377;45.186;9.778;2023-11-21T11:18:15;100416.41;;;15.29;57.43
51293;BME280;37377;45.186;9.778;2023-11-21T11:20:45;100412.22;;;15.11;58.15
51293;BME280;37377;45.186;9.778;2023-11-21T11:28:21;100405.50;;;15.33;57.59
51293;BME280;37377;45.186;9.778;2023-11-21T11:31:04;100393.34;;;15.48;57.78
51293;BME280;37377;45.186;9.778;2023-11-21T11:36:34;100395.59;;;15.26;57.16
51293;BME280;37377;45.186;9.778;2023-11-21T11:39:03;100392.66;;;15.38;56.86
51293;BME280;37377;45.186;9.778;2023-11-21T11:41:32;100387.38;;;15.29;57.12
51293;BME280;37377;45.186;9.778;2023-11-21T11:44:01;100386.41;;;15.39;56.80
51293;BME280;37377;45.186;9.778;2023-11-21T11:46:44;100389.94;;;15.13;57.59
51293;BME280;37377;45.186;9.778;2023-11-21T11:49:24;100392.44;;;14.81;58.46
51293;BME280;37377;45.186;9.778;2023-11-21T11:55:12;100387.09;;;14.98;58.24
51293;BME280;37377;45.186;9.778;2023-11-21T11:57:41;100378.31;;;14.90;58.54
51293;BME280;37377;45.186;9.778;2023-11-21T12:00:17;100377.84;;;14.94;59.01
51293;BME280;37377;45.186;9.778;2023-11-21T12:02:50;100376.66;;;14.89;59.04
51293;BME280;37377;45.186;9.778;2023-11-21T12:05:20;100370.25;;;14.31;59.91
51293;BME280;37377;45.186;9.778;2023-11-21T12:07:55;100373.81;;;14.04;61.34
51293;BME280;37377;45.186;9.778;2023-11-21T12:10:25;100366.75;;;14.31;61.57
51293;BME280;37377;45.186;9.778;2023-11-21T12:15:22;100374.63;;;14.49;60.58
51293;BME280;37377;45.186;9.778;2023-11-21T12:17:49;100375.25;;;14.42;60.83
51293;BME280;37377;45.186;9.778;2023-11-21T12:20:22;100382.94;;;13.92;61.31
51293;BME280;37377;45.186;9.778;2023-11-21T12:22:50;100373.47;;;13.99;61.86
51293;BME280;37377;45.186;9.778;2023-11-21T12:25:19;100365.50;;;13.91;61.95
51293;BME280;37377;45.186;9.778;2023-11-21T12:27:50;100365.03;;;14.13;61.47
51293;BME280;37377;45.186;9.778;2023-11-21T12:30:26;100357.75;;;13.89;62.11
51293;BME280;37377;45.186;9.778;2023-11-21T12:32:55;100356.13;;;14.14;61.33
51293;BME280;37377;45.186;9.778;2023-11-21T12:35:24;100354.38;;;14.23;61.28
51293;BME280;37377;45.186;9.778;2023-11-21T12:37:52;100363.13;;;13.80;62.77
51293;BME280;37377;45.186;9.778;2023-11-21T12:40:20;100363.94;;;13.45;63.14
51293;BME280;37377;45.186;9.778;2023-11-21T12:42:54;100368.06;;;13.83;62.37
51293;BME280;37377;45.186;9.778;2023-11-21T12:45:23;100368.78;;;13.93;62.59
51293;BME280;37377;45.186;9.778;2023-11-21T12:47:57;100367.75;;;13.86;62.69
51293;BME280;37377;45.186;9.778;2023-11-21T12:50:28;100370.69;;;13.65;63.40
51293;BME280;37377;45.186;9.778;2023-11-21T12:53:01;100369.69;;;14.02;61.70
51293;BME280;37377;45.186;9.778;2023-11-21T12:55:30;100367.31;;;13.73;63.01
51293;BME280;37377;45.186;9.778;2023-11-21T12:57:57;100375.38;;;13.89;63.39
51293;BME280;37377;45.186;9.778;2023-11-21T13:00:31;100370.75;;;13.91;62.56
51293;BME280;37377;45.186;9.778;2023-11-21T13:03:00;100372.78;;;13.97;63.27
51293;BME280;37377;45.186;9.778;2023-11-21T13:05:33;100373.81;;;13.60;64.10
51293;BME280;37377;45.186;9.778;2023-11-21T13:08:02;100377.69;;;13.56;64.37
51293;BME280;37377;45.186;9.778;2023-11-21T13:10:31;100377.25;;;13.79;63.69
51293;BME280;37377;45.186;9.778;2023-11-21T13:12:58;100386.25;;;13.58;63.96
51293;BME280;37377;45.186;9.778;2023-11-21T13:15:27;100384.59;;;13.93;63.54
51293;BME280;37377;45.186;9.778;2023-11-21T13:17:54;100377.25;;;13.43;64.13
51293;BME280;37377;45.186;9.778;2023-11-21T13:20:24;100383.84;;;13.47;64.40
51293;BME280;37377;45.186;9.778;2023-11-21T13:22:56;100386.66;;;13.64;64.46